sensor_id;sensor_type;location;lat;lon;timestamp;temperature;humidity
52769;DHT22;40471;44.534;18.644;2023-07-31T00:02:07;22.10;99.90
52769;DHT22;40471;44.534;18.644;2023-07-31T00:04:32;22.10;99.90
52769;DHT22;40471;44.534;18.644;2023-07-31T00:06:58;22.00;99.90
52769;DHT22;40471;44.534;18.644;2023-07-31T00:09:24;21.90;99.90
52769;DHT22;40471;44.534;18.644;2023-07-31T00:11:49;21.60;99.90
52769;DHT22;40471;44.534;18.644;2023-07-31T00:14:15;21.50;99.90
52769;DHT22;40471;44.534;18.644;2023-07-31T00:16:40;21.60;99.90
52769;DHT22;40471;44.534;18.644;2023-07-31T00:19:06;21.60;99.90
52769;DHT22;40471;44.534;18.644;2023-07-31T00:21:32;21.60;99.90
52769;DHT22;40471;44.534;18.644;2023-07-31T00:23:57;21.70;99.90
52769;DHT22;40471;44.534;18.644;2023-07-31T00:26:23;21.70;99.90
52769;DHT22;40471;44.534;18.644;2023-07-31T00:28:48;21.70;99.90
52769;DHT22;40471;44.534;18.644;2023-07-31T00:31:14;21.60;99.90
52769;DHT22;40471;44.534;18.644;2023-07-31T00:33:39;21.50;99.90
52769;DHT22;40471;44.534;18.644;2023-07-31T00:36:05;21.40;99.90
52769;DHT22;40471;44.534;18.644;2023-07-31T00:38:31;21.50;99.90
52769;DHT22;40471;44.534;18.644;2023-07-31T00:40:56;21.50;99.90
52769;DHT22;40471;44.534;18.644;2023-07-31T00:43:22;21.40;99.90
52769;DHT22;40471;44.534;18.644;2023-07-31T00:45:48;21.50;99.90
52769;DHT22;40471;44.534;18.644;2023-07-31T00:48:13;21.60;99.90
52769;DHT22;40471;44.534;18.644;2023-07-31T00:50:39;21.60;99.90
52769;DHT22;40471;44.534;18.644;2023-07-31T00:53:05;21.60;99.90
52769;DHT22;40471;44.534;18.644;2023-07-31T00:55:30;21.70;99.90
52769;DHT22;40471;44.534;18.644;2023-07-31T00:57:56;21.60;99.90
52769;DHT22;40471;44.534;18.644;2023-07-31T01:00:22;21.60;99.90
52769;DHT22;40471;44.534;18.644;2023-07-31T01:02:48;21.60;99.90
52769;DHT22;40471;44.534;18.644;2023-07-31T01:05:14;21.50;99.90
52769;DHT22;40471;44.534;18.644;2023-07-31T01:10:16;21.50;99.90
52769;DHT22;40471;44.534;18.644;2023-07-31T01:12:42;21.40;99.90
52769;DHT22;40471;44.534;18.644;2023-07-31T01:15:10;21.30;99.90
52769;DHT22;40471;44.534;18.644;2023-07-31T01:17:36;21.30;99.90
52769;DHT22;40471;44.534;18.644;2023-07-31T01:20:02;21.20;99.90
52769;DHT22;40471;44.534;18.644;2023-07-31T01:28:05;20.60;99.90
52769;DHT22;40471;44.534;18.644;2023-07-31T01:30:35;21.00;99.90
52769;DHT22;40471;44.534;18.644;2023-07-31T01:33:03;21.10;99.90
52769;DHT22;40471;44.534;18.644;2023-07-31T01:35:33;21.10;99.90
52769;DHT22;40471;44.534;18.644;2023-07-31T01:37:59;21.00;99.90
52769;DHT22;40471;44.534;18.644;2023-07-31T01:40:24;21.00;99.90
52769;DHT22;40471;44.534;18.644;2023-07-31T01:42:50;20.90;99.90
52769;DHT22;40471;44.534;18.644;2023-07-31T01:45:15;20.90;99.90
52769;DHT22;40471;44.534;18.644;2023-07-31T01:47:41;20.90;99.90
52769;DHT22;40471;44.534;18.644;2023-07-31T01:50:07;20.90;99.90
52769;DHT22;40471;44.534;18.644;2023-07-31T01:52:32;20.80;99.90
52769;DHT22;40471;44.534;18.644;2023-07-31T01:54:58;21.00;99.90
52769;DHT22;40471;44.534;18.644;2023-07-31T01:57:24;20.90;99.90
52769;DHT22;40471;44.534;18.644;2023-07-31T01:59:49;20.80;99.90
52769;DHT22;40471;44.534;18.644;2023-07-31T02:02:15;20.80;99.90
52769;DHT22;40471;44.534;18.644;2023-07-31T02:04:41;20.80;99.90
52769;DHT22;40471;44.534;18.644;2023-07-31T02:07:06;20.80;99.90
52769;DHT22;40471;44.534;18.644;2023-07-31T02:09:32;20.70;99.90
52769;DHT22;40471;44.534;18.644;2023-07-31T02:11:58;20.70;99.90
52769;DHT22;40471;44.534;18.644;2023-07-31T02:14:23;20.70;99.90
52769;DHT22;40471;44.534;18.644;2023-07-31T02:16:49;20.70;99.90
52769;DHT22;40471;44.534;18.644;2023-07-31T02:19:15;20.70;99.90
52769;DHT22;40471;44.534;18.644;2023-07-31T02:21:41;20.70;99.90
52769;DHT22;40471;44.534;18.644;2023-07-31T02:24:06;20.70;99.90
52769;DHT22;40471;44.534;18.644;2023-07-31T02:26:32;20.70;99.90
52769;DHT22;40471;44.534;18.644;2023-07-31T02:28:58;20.70;99.90
52769;DHT22;40471;44.534;18.644;2023-07-31T02:31:23;20.80;99.90
52769;DHT22;40471;44.534;18.644;2023-07-31T02:33:49;20.80;99.90
52769;DHT22;40471;44.534;18.644;2023-07-31T02:36:14;20.70;99.90
52769;DHT22;40471;44.534;18.644;2023-07-31T02:38:40;20.70;99.90
52769;DHT22;40471;44.534;18.644;2023-07-31T02:41:06;20.70;99.90
52769;DHT22;40471;44.534;18.644;2023-07-31T02:43:31;20.70;99.90
52769;DHT22;40471;44.534;18.644;2023-07-31T02:45:57;20.70;99.90
52769;DHT22;40471;44.534;18.644;2023-07-31T02:48:22;20.60;99.90
52769;DHT22;40471;44.534;18.644;2023-07-31T02:50:48;20.60;99.90
52769;DHT22;40471;44.534;18.644;2023-07-31T02:53:14;20.60;99.90
52769;DHT22;40471;44.534;18.644;2023-07-31T02:55:40;20.60;99.90
52769;DHT22;40471;44.534;18.644;2023-07-31T02:58:06;20.50;99.90
52769;DHT22;40471;44.534;18.644;2023-07-31T03:00:31;20.50;99.90
52769;DHT22;40471;44.534;18.644;2023-07-31T03:02:57;20.50;99.90
52769;DHT22;40471;44.534;18.644;2023-07-31T03:05:23;20.50;99.90
52769;DHT22;40471;44.534;18.644;2023-07-31T03:07:48;20.50;99.90
52769;DHT22;40471;44.534;18.644;2023-07-31T03:10:14;20.50;99.90
52769;DHT22;40471;44.534;18.644;2023-07-31T03:12:40;20.40;99.90
52769;DHT22;40471;44.534;18.644;2023-07-31T03:15:06;20.50;99.90
52769;DHT22;40471;44.534;18.644;2023-07-31T03:17:31;20.50;99.90
52769;DHT22;40471;44.534;18.644;2023-07-31T03:19:57;20.50;99.90
52769;DHT22;40471;44.534;18.644;2023-07-31T03:22:23;20.40;99.90
52769;DHT22;40471;44.534;18.644;2023-07-31T03:24:48;20.40;99.90
52769;DHT22;40471;44.534;18.644;2023-07-31T03:27:14;20.40;99.90
52769;DHT22;40471;44.534;18.644;2023-07-31T03:29:39;20.40;99.90
52769;DHT22;40471;44.534;18.644;2023-07-31T03:32:05;20.40;99.90
52769;DHT22;40471;44.534;18.644;2023-07-31T03:34:31;20.40;99.90
52769;DHT22;40471;44.534;18.644;2023-07-31T03:36:57;20.30;99.90
52769;DHT22;40471;44.534;18.644;2023-07-31T03:39:23;20.40;99.90
52769;DHT22;40471;44.534;18.644;2023-07-31T03:41:49;20.40;99.90
52769;DHT22;40471;44.534;18.644;2023-07-31T03:44:14;20.40;99.90
52769;DHT22;40471;44.534;18.644;2023-07-31T03:46:40;20.30;99.90
52769;DHT22;40471;44.534;18.644;2023-07-31T03:49:05;20.40;99.90
52769;DHT22;40471;44.534;18.644;2023-07-31T03:51:31;20.40;99.90
52769;DHT22;40471;44.534;18.644;2023-07-31T03:53:56;20.50;99.90
52769;DHT22;40471;44.534;18.644;2023-07-31T03:56:22;20.50;99.90
52769;DHT22;40471;44.534;18.644;2023-07-31T03:58:48;20.60;99.90
52769;DHT22;40471;44.534;18.644;2023-07-31T04:01:13;20.60;99.90
52769;DHT22;40471;44.534;18.644;2023-07-31T04:03:39;20.70;99.90
52769;DHT22;40471;44.534;18.644;2023-07-31T04:06:04;20.70;99.90
52769;DHT22;40471;44.534;18.644;2023-07-31T04:08:32;20.90;99.90
52769;DHT22;40471;44.534;18.644;2023-07-31T04:10:57;20.90;99.90
52769;DHT22;40471;44.534;18.644;2023-07-31T04:13:23;21.00;99.90
52769;DHT22;40471;44.534;18.644;2023-07-31T04:15:49;21.00;99.90
52769;DHT22;40471;44.534;18.644;2023-07-31T04:18:16;21.10;99.90
52769;DHT22;40471;44.534;18.644;2023-07-31T04:20:41;21.20;99.90
52769;DHT22;40471;44.534;18.644;2023-07-31T04:23:07;21.30;99.90
52769;DHT22;40471;44.534;18.644;2023-07-31T04:25:33;21.40;99.90
52769;DHT22;40471;44.534;18.644;2023-07-31T04:28:00;21.40;99.90
52769;DHT22;40471;44.534;18.644;2023-07-31T04:30:26;21.50;99.90
52769;DHT22;40471;44.534;18.644;2023-07-31T04:32:51;21.50;99.90
52769;DHT22;40471;44.534;18.644;2023-07-31T04:35:17;21.60;99.90
52769;DHT22;40471;44.534;18.644;2023-07-31T04:37:42;21.70;99.90
52769;DHT22;40471;44.534;18.644;2023-07-31T04:40:09;21.80;99.90
52769;DHT22;40471;44.534;18.644;2023-07-31T04:42:35;21.90;99.90
52769;DHT22;40471;44.534;18.644;2023-07-31T04:45:01;21.90;99.90
52769;DHT22;40471;44.534;18.644;2023-07-31T04:47:26;22.00;99.90
52769;DHT22;40471;44.534;18.644;2023-07-31T04:49:52;22.10;99.90
52769;DHT22;40471;44.534;18.644;2023-07-31T04:52:18;22.10;99.90
52769;DHT22;40471;44.534;18.644;2023-07-31T04:54:43;22.30;99.90
52769;DHT22;40471;44.534;18.644;2023-07-31T04:57:09;22.10;99.90
52769;DHT22;40471;44.534;18.644;2023-07-31T04:59:34;22.10;99.90
52769;DHT22;40471;44.534;18.644;2023-07-31T05:02:00;22.20;99.90
52769;DHT22;40471;44.534;18.644;2023-07-31T05:04:26;22.20;99.90
52769;DHT22;40471;44.534;18.644;2023-07-31T05:06:51;22.30;99.90
52769;DHT22;40471;44.534;18.644;2023-07-31T05:09:17;22.40;99.90
52769;DHT22;40471;44.534;18.644;2023-07-31T05:11:43;22.50;99.90
52769;DHT22;40471;44.534;18.644;2023-07-31T05:14:09;22.50;99.90
52769;DHT22;40471;44.534;18.644;2023-07-31T05:16:34;22.50;99.90
52769;DHT22;40471;44.534;18.644;2023-07-31T05:19:00;22.60;99.90
52769;DHT22;40471;44.534;18.644;2023-07-31T05:21:25;22.60;99.90
52769;DHT22;40471;44.534;18.644;2023-07-31T05:23:51;22.50;99.90
52769;DHT22;40471;44.534;18.644;2023-07-31T05:26:16;22.60;99.90
52769;DHT22;40471;44.534;18.644;2023-07-31T05:28:43;22.60;99.90
52769;DHT22;40471;44.534;18.644;2023-07-31T05:31:08;22.60;99.90
52769;DHT22;40471;44.534;18.644;2023-07-31T05:33:34;22.60;99.90
52769;DHT22;40471;44.534;18.644;2023-07-31T05:35:59;22.70;99.90
52769;DHT22;40471;44.534;18.644;2023-07-31T05:38:25;22.80;99.90
52769;DHT22;40471;44.534;18.644;2023-07-31T05:40:51;22.80;99.90
52769;DHT22;40471;44.534;18.644;2023-07-31T05:43:16;22.90;99.90
52769;DHT22;40471;44.534;18.644;2023-07-31T05:45:42;22.90;99.90
52769;DHT22;40471;44.534;18.644;2023-07-31T05:48:07;23.00;99.90
52769;DHT22;40471;44.534;18.644;2023-07-31T05:50:33;23.00;99.90
52769;DHT22;40471;44.534;18.644;2023-07-31T05:52:59;23.10;99.90
52769;DHT22;40471;44.534;18.644;2023-07-31T05:55:25;23.20;99.90
52769;DHT22;40471;44.534;18.644;2023-07-31T05:57:52;23.30;99.90
52769;DHT22;40471;44.534;18.644;2023-07-31T06:00:18;23.40;99.90
52769;DHT22;40471;44.534;18.644;2023-07-31T06:02:43;23.50;99.90
52769;DHT22;40471;44.534;18.644;2023-07-31T06:05:09;23.60;99.90
52769;DHT22;40471;44.534;18.644;2023-07-31T06:07:35;23.60;99.90
52769;DHT22;40471;44.534;18.644;2023-07-31T06:10:01;23.70;99.90
52769;DHT22;40471;44.534;18.644;2023-07-31T06:12:30;23.70;99.90
52769;DHT22;40471;44.534;18.644;2023-07-31T06:14:56;23.80;99.90
52769;DHT22;40471;44.534;18.644;2023-07-31T06:17:22;24.00;99.90
52769;DHT22;40471;44.534;18.644;2023-07-31T06:19:47;24.20;99.90
52769;DHT22;40471;44.534;18.644;2023-07-31T06:22:13;24.40;99.90
52769;DHT22;40471;44.534;18.644;2023-07-31T06:24:38;23.80;99.90
52769;DHT22;40471;44.534;18.644;2023-07-31T06:27:04;25.30;99.90
52769;DHT22;40471;44.534;18.644;2023-07-31T06:29:31;25.60;99.90
52769;DHT22;40471;44.534;18.644;2023-07-31T06:31:57;27.30;99.90
52769;DHT22;40471;44.534;18.644;2023-07-31T06:34:22;30.50;99.90
52769;DHT22;40471;44.534;18.644;2023-07-31T06:36:48;32.70;99.90
52769;DHT22;40471;44.534;18.644;2023-07-31T06:39:13;34.60;99.90
52769;DHT22;40471;44.534;18.644;2023-07-31T06:41:39;35.70;99.90
52769;DHT22;40471;44.534;18.644;2023-07-31T06:44:04;36.90;93.40
52769;DHT22;40471;44.534;18.644;2023-07-31T06:46:30;36.40;92.30
52769;DHT22;40471;44.534;18.644;2023-07-31T06:48:56;35.60;92.30
52769;DHT22;40471;44.534;18.644;2023-07-31T06:51:21;34.70;92.60
52769;DHT22;40471;44.534;18.644;2023-07-31T06:53:47;33.50;94.30
52769;DHT22;40471;44.534;18.644;2023-07-31T06:56:12;32.40;95.40
52769;DHT22;40471;44.534;18.644;2023-07-31T06:58:38;31.30;98.90
52769;DHT22;40471;44.534;18.644;2023-07-31T07:01:04;30.70;99.90
52769;DHT22;40471;44.534;18.644;2023-07-31T07:03:30;30.50;99.90
52769;DHT22;40471;44.534;18.644;2023-07-31T07:05:55;30.30;99.90
52769;DHT22;40471;44.534;18.644;2023-07-31T07:08:21;30.20;99.90
52769;DHT22;40471;44.534;18.644;2023-07-31T07:10:47;29.60;99.90
52769;DHT22;40471;44.534;18.644;2023-07-31T07:13:13;29.10;99.90
52769;DHT22;40471;44.534;18.644;2023-07-31T07:15:38;28.70;99.90
52769;DHT22;40471;44.534;18.644;2023-07-31T07:18:04;28.70;99.90
52769;DHT22;40471;44.534;18.644;2023-07-31T07:20:30;28.70;99.90
52769;DHT22;40471;44.534;18.644;2023-07-31T07:22:55;28.80;99.90
52769;DHT22;40471;44.534;18.644;2023-07-31T07:25:21;28.90;99.90
52769;DHT22;40471;44.534;18.644;2023-07-31T07:27:46;31.10;99.90
52769;DHT22;40471;44.534;18.644;2023-07-31T07:30:12;32.40;99.90
52769;DHT22;40471;44.534;18.644;2023-07-31T07:32:39;33.10;99.90
52769;DHT22;40471;44.534;18.644;2023-07-31T07:35:05;33.20;98.50
52769;DHT22;40471;44.534;18.644;2023-07-31T07:37:31;33.10;97.40
52769;DHT22;40471;44.534;18.644;2023-07-31T07:39:57;32.70;96.20
52769;DHT22;40471;44.534;18.644;2023-07-31T07:42:23;32.10;96.60
52769;DHT22;40471;44.534;18.644;2023-07-31T07:44:48;31.10;98.80
52769;DHT22;40471;44.534;18.644;2023-07-31T07:47:14;30.30;99.90
52769;DHT22;40471;44.534;18.644;2023-07-31T07:49:39;30.10;99.90
52769;DHT22;40471;44.534;18.644;2023-07-31T07:52:05;31.50;99.90
52769;DHT22;40471;44.534;18.644;2023-07-31T07:54:31;31.70;99.90
52769;DHT22;40471;44.534;18.644;2023-07-31T07:56:56;32.30;99.50
52769;DHT22;40471;44.534;18.644;2023-07-31T07:59:22;32.60;97.70
52769;DHT22;40471;44.534;18.644;2023-07-31T08:01:48;33.10;96.20
52769;DHT22;40471;44.534;18.644;2023-07-31T08:04:14;32.80;95.40
52769;DHT22;40471;44.534;18.644;2023-07-31T08:06:39;32.40;95.80
52769;DHT22;40471;44.534;18.644;2023-07-31T08:09:05;32.10;94.80
52769;DHT22;40471;44.534;18.644;2023-07-31T08:11:32;32.60;93.80
52769;DHT22;40471;44.534;18.644;2023-07-31T08:13:57;33.40;93.10
52769;DHT22;40471;44.534;18.644;2023-07-31T08:16:23;35.00;90.80
52769;DHT22;40471;44.534;18.644;2023-07-31T08:18:48;36.00;89.40
52769;DHT22;40471;44.534;18.644;2023-07-31T08:21:14;37.10;85.80
52769;DHT22;40471;44.534;18.644;2023-07-31T08:23:40;37.40;82.60
52769;DHT22;40471;44.534;18.644;2023-07-31T08:26:06;37.10;78.10
52769;DHT22;40471;44.534;18.644;2023-07-31T08:28:31;36.90;74.90
52769;DHT22;40471;44.534;18.644;2023-07-31T08:30:57;37.20;76.40
52769;DHT22;40471;44.534;18.644;2023-07-31T08:33:22;37.40;74.90
52769;DHT22;40471;44.534;18.644;2023-07-31T08:35:48;37.30;75.00
52769;DHT22;40471;44.534;18.644;2023-07-31T08:38:14;37.40;75.00
52769;DHT22;40471;44.534;18.644;2023-07-31T08:40:40;37.40;72.60
52769;DHT22;40471;44.534;18.644;2023-07-31T08:43:05;37.80;69.40
52769;DHT22;40471;44.534;18.644;2023-07-31T08:45:31;38.80;65.10
52769;DHT22;40471;44.534;18.644;2023-07-31T08:47:57;38.10;62.20
52769;DHT22;40471;44.534;18.644;2023-07-31T08:50:24;38.10;61.60
52769;DHT22;40471;44.534;18.644;2023-07-31T08:52:50;38.20;62.50
52769;DHT22;40471;44.534;18.644;2023-07-31T08:55:16;37.90;62.10
52769;DHT22;40471;44.534;18.644;2023-07-31T08:57:42;37.80;59.80
52769;DHT22;40471;44.534;18.644;2023-07-31T09:00:08;37.60;60.50
52769;DHT22;40471;44.534;18.644;2023-07-31T09:02:36;37.70;60.40
52769;DHT22;40471;44.534;18.644;2023-07-31T09:05:03;37.80;61.00
52769;DHT22;40471;44.534;18.644;2023-07-31T09:07:29;38.40;60.50
52769;DHT22;40471;44.534;18.644;2023-07-31T09:09:57;38.90;59.10
52769;DHT22;40471;44.534;18.644;2023-07-31T09:12:22;39.20;58.80
52769;DHT22;40471;44.534;18.644;2023-07-31T09:14:48;39.30;56.90
52769;DHT22;40471;44.534;18.644;2023-07-31T09:17:13;39.30;56.30
52769;DHT22;40471;44.534;18.644;2023-07-31T09:19:39;39.50;55.80
52769;DHT22;40471;44.534;18.644;2023-07-31T09:22:05;39.70;55.50
52769;DHT22;40471;44.534;18.644;2023-07-31T09:24:31;39.70;56.30
52769;DHT22;40471;44.534;18.644;2023-07-31T09:26:58;39.90;56.00
52769;DHT22;40471;44.534;18.644;2023-07-31T09:29:24;39.80;55.60
52769;DHT22;40471;44.534;18.644;2023-07-31T09:31:50;39.80;57.00
52769;DHT22;40471;44.534;18.644;2023-07-31T09:34:16;40.10;55.50
52769;DHT22;40471;44.534;18.644;2023-07-31T09:36:42;40.40;54.90
52769;DHT22;40471;44.534;18.644;2023-07-31T09:39:11;40.50;56.20
52769;DHT22;40471;44.534;18.644;2023-07-31T09:41:38;40.70;56.20
52769;DHT22;40471;44.534;18.644;2023-07-31T09:44:04;40.90;54.50
52769;DHT22;40471;44.534;18.644;2023-07-31T09:46:30;41.20;53.30
52769;DHT22;40471;44.534;18.644;2023-07-31T09:49:11;41.30;53.80
52769;DHT22;40471;44.534;18.644;2023-07-31T09:51:41;41.20;53.40
52769;DHT22;40471;44.534;18.644;2023-07-31T09:54:10;40.90;52.00
52769;DHT22;40471;44.534;18.644;2023-07-31T09:56:41;41.10;52.00
52769;DHT22;40471;44.534;18.644;2023-07-31T09:59:07;40.90;52.00
52769;DHT22;40471;44.534;18.644;2023-07-31T10:01:33;40.70;51.90
52769;DHT22;40471;44.534;18.644;2023-07-31T10:03:59;40.60;50.30
52769;DHT22;40471;44.534;18.644;2023-07-31T10:06:25;41.10;50.90
52769;DHT22;40471;44.534;18.644;2023-07-31T10:08:51;41.10;49.60
52769;DHT22;40471;44.534;18.644;2023-07-31T10:11:18;40.90;51.40
52769;DHT22;40471;44.534;18.644;2023-07-31T10:13:44;39.80;51.10
52769;DHT22;40471;44.534;18.644;2023-07-31T10:16:10;38.70;50.60
52769;DHT22;40471;44.534;18.644;2023-07-31T10:18:37;38.00;51.60
52769;DHT22;40471;44.534;18.644;2023-07-31T10:21:03;38.20;50.60
52769;DHT22;40471;44.534;18.644;2023-07-31T10:23:29;38.70;51.10
52769;DHT22;40471;44.534;18.644;2023-07-31T10:25:55;39.10;50.60
52769;DHT22;40471;44.534;18.644;2023-07-31T10:28:22;39.30;50.00
52769;DHT22;40471;44.534;18.644;2023-07-31T10:30:48;39.10;51.00
52769;DHT22;40471;44.534;18.644;2023-07-31T10:33:14;38.90;49.90
52769;DHT22;40471;44.534;18.644;2023-07-31T10:35:40;39.00;50.40
52769;DHT22;40471;44.534;18.644;2023-07-31T10:38:10;38.60;49.70
52769;DHT22;40471;44.534;18.644;2023-07-31T10:40:36;38.90;50.70
52769;DHT22;40471;44.534;18.644;2023-07-31T10:43:02;39.20;48.20
52769;DHT22;40471;44.534;18.644;2023-07-31T10:45:32;39.10;48.30
52769;DHT22;40471;44.534;18.644;2023-07-31T10:57:20;39.70;48.40
52769;DHT22;40471;44.534;18.644;2023-07-31T10:59:47;40.00;48.60
52769;DHT22;40471;44.534;18.644;2023-07-31T11:02:25;39.90;48.80
52769;DHT22;40471;44.534;18.644;2023-07-31T11:05:10;39.50;48.00
52769;DHT22;40471;44.534;18.644;2023-07-31T11:07:48;39.30;46.00
52769;DHT22;40471;44.534;18.644;2023-07-31T11:10:19;39.10;46.20
52769;DHT22;40471;44.534;18.644;2023-07-31T11:12:45;39.10;48.20
52769;DHT22;40471;44.534;18.644;2023-07-31T11:15:12;39.40;47.60
52769;DHT22;40471;44.534;18.644;2023-07-31T11:17:40;39.40;48.10
52769;DHT22;40471;44.534;18.644;2023-07-31T11:20:06;39.40;46.90
52769;DHT22;40471;44.534;18.644;2023-07-31T11:22:35;39.40;47.60
52769;DHT22;40471;44.534;18.644;2023-07-31T11:25:03;39.30;48.00
52769;DHT22;40471;44.534;18.644;2023-07-31T11:27:29;39.40;47.00
52769;DHT22;40471;44.534;18.644;2023-07-31T11:30:01;39.50;46.00
52769;DHT22;40471;44.534;18.644;2023-07-31T11:32:27;39.30;45.00
52769;DHT22;40471;44.534;18.644;2023-07-31T11:34:53;38.60;44.40
52769;DHT22;40471;44.534;18.644;2023-07-31T11:37:19;38.60;45.10
52769;DHT22;40471;44.534;18.644;2023-07-31T11:39:58;38.60;44.70
52769;DHT22;40471;44.534;18.644;2023-07-31T11:42:23;38.30;45.90
52769;DHT22;40471;44.534;18.644;2023-07-31T11:44:49;38.10;46.80
52769;DHT22;40471;44.534;18.644;2023-07-31T11:47:15;38.00;47.20
52769;DHT22;40471;44.534;18.644;2023-07-31T11:49:41;38.30;47.90
52769;DHT22;40471;44.534;18.644;2023-07-31T11:52:08;38.40;46.60
52769;DHT22;40471;44.534;18.644;2023-07-31T11:54:34;38.50;47.10
52769;DHT22;40471;44.534;18.644;2023-07-31T11:57:00;38.60;47.00
52769;DHT22;40471;44.534;18.644;2023-07-31T11:59:26;38.50;48.10
52769;DHT22;40471;44.534;18.644;2023-07-31T12:01:52;38.70;46.50
52769;DHT22;40471;44.534;18.644;2023-07-31T12:04:19;38.70;45.90
52769;DHT22;40471;44.534;18.644;2023-07-31T12:06:46;38.60;47.10
52769;DHT22;40471;44.534;18.644;2023-07-31T12:09:14;38.70;48.90
52769;DHT22;40471;44.534;18.644;2023-07-31T12:11:46;39.10;46.80
52769;DHT22;40471;44.534;18.644;2023-07-31T12:14:25;39.10;47.00
52769;DHT22;40471;44.534;18.644;2023-07-31T12:16:58;38.80;48.20
52769;DHT22;40471;44.534;18.644;2023-07-31T12:19:27;38.60;49.30
52769;DHT22;40471;44.534;18.644;2023-07-31T12:21:56;38.10;47.10
52769;DHT22;40471;44.534;18.644;2023-07-31T12:24:22;37.40;48.50
52769;DHT22;40471;44.534;18.644;2023-07-31T12:26:48;36.90;47.60
52769;DHT22;40471;44.534;18.644;2023-07-31T12:29:14;36.90;49.70
52769;DHT22;40471;44.534;18.644;2023-07-31T12:31:40;37.00;48.60
52769;DHT22;40471;44.534;18.644;2023-07-31T12:34:14;37.30;47.40
52769;DHT22;40471;44.534;18.644;2023-07-31T12:36:39;36.90;48.50
52769;DHT22;40471;44.534;18.644;2023-07-31T12:39:05;36.90;49.30
52769;DHT22;40471;44.534;18.644;2023-07-31T12:41:31;37.20;50.10
52769;DHT22;40471;44.534;18.644;2023-07-31T12:43:56;37.30;49.00
52769;DHT22;40471;44.534;18.644;2023-07-31T12:46:22;37.70;48.30
52769;DHT22;40471;44.534;18.644;2023-07-31T12:48:48;37.90;49.00
52769;DHT22;40471;44.534;18.644;2023-07-31T12:51:13;37.90;47.40
52769;DHT22;40471;44.534;18.644;2023-07-31T12:53:39;37.80;47.60
52769;DHT22;40471;44.534;18.644;2023-07-31T12:56:04;37.40;47.50
52769;DHT22;40471;44.534;18.644;2023-07-31T12:58:30;37.10;48.10
52769;DHT22;40471;44.534;18.644;2023-07-31T13:00:56;37.10;49.40
52769;DHT22;40471;44.534;18.644;2023-07-31T13:03:22;37.20;47.70
52769;DHT22;40471;44.534;18.644;2023-07-31T13:05:47;37.00;48.60
52769;DHT22;40471;44.534;18.644;2023-07-31T13:08:13;37.00;49.00
52769;DHT22;40471;44.534;18.644;2023-07-31T13:10:41;36.90;47.90
52769;DHT22;40471;44.534;18.644;2023-07-31T13:13:07;36.70;47.80
52769;DHT22;40471;44.534;18.644;2023-07-31T13:15:32;36.40;49.20
52769;DHT22;40471;44.534;18.644;2023-07-31T13:17:58;36.20;49.30
52769;DHT22;40471;44.534;18.644;2023-07-31T13:20:24;36.20;49.40
52769;DHT22;40471;44.534;18.644;2023-07-31T13:22:50;36.30;49.10
52769;DHT22;40471;44.534;18.644;2023-07-31T13:25:16;36.50;48.40
52769;DHT22;40471;44.534;18.644;2023-07-31T13:27:44;36.50;50.00
52769;DHT22;40471;44.534;18.644;2023-07-31T13:30:10;36.30;49.50
52769;DHT22;40471;44.534;18.644;2023-07-31T13:32:36;36.30;49.90
52769;DHT22;40471;44.534;18.644;2023-07-31T13:35:07;36.30;50.40
52769;DHT22;40471;44.534;18.644;2023-07-31T13:37:33;36.40;50.70
52769;DHT22;40471;44.534;18.644;2023-07-31T13:39:59;36.40;49.90
52769;DHT22;40471;44.534;18.644;2023-07-31T13:42:25;36.40;50.00
52769;DHT22;40471;44.534;18.644;2023-07-31T13:44:51;36.20;49.50
52769;DHT22;40471;44.534;18.644;2023-07-31T13:47:17;36.00;50.60
52769;DHT22;40471;44.534;18.644;2023-07-31T13:49:43;35.50;50.60
52769;DHT22;40471;44.534;18.644;2023-07-31T13:52:08;35.00;50.00
52769;DHT22;40471;44.534;18.644;2023-07-31T13:54:34;34.80;50.20
52769;DHT22;40471;44.534;18.644;2023-07-31T13:57:00;34.50;50.80
52769;DHT22;40471;44.534;18.644;2023-07-31T13:59:25;34.40;52.00
52769;DHT22;40471;44.534;18.644;2023-07-31T14:01:51;34.50;51.90
52769;DHT22;40471;44.534;18.644;2023-07-31T14:04:17;34.50;50.60
52769;DHT22;40471;44.534;18.644;2023-07-31T14:06:43;34.40;52.00
52769;DHT22;40471;44.534;18.644;2023-07-31T14:09:09;34.30;51.60
52769;DHT22;40471;44.534;18.644;2023-07-31T14:11:34;34.10;51.30
52769;DHT22;40471;44.534;18.644;2023-07-31T14:14:00;33.90;51.60
52769;DHT22;40471;44.534;18.644;2023-07-31T14:16:27;33.80;51.80
52769;DHT22;40471;44.534;18.644;2023-07-31T14:18:53;33.60;51.40
52769;DHT22;40471;44.534;18.644;2023-07-31T14:21:19;33.40;51.50
52769;DHT22;40471;44.534;18.644;2023-07-31T14:23:45;33.20;52.80
52769;DHT22;40471;44.534;18.644;2023-07-31T14:26:11;33.20;52.70
52769;DHT22;40471;44.534;18.644;2023-07-31T14:28:37;33.10;52.30
52769;DHT22;40471;44.534;18.644;2023-07-31T14:31:03;33.10;52.90
52769;DHT22;40471;44.534;18.644;2023-07-31T14:33:29;33.20;52.50
52769;DHT22;40471;44.534;18.644;2023-07-31T14:35:54;33.40;52.80
52769;DHT22;40471;44.534;18.644;2023-07-31T14:38:20;33.20;52.80
52769;DHT22;40471;44.534;18.644;2023-07-31T14:40:46;32.60;52.40
52769;DHT22;40471;44.534;18.644;2023-07-31T14:43:11;32.40;52.80
52769;DHT22;40471;44.534;18.644;2023-07-31T14:45:37;32.40;53.80
52769;DHT22;40471;44.534;18.644;2023-07-31T14:48:02;32.30;53.10
52769;DHT22;40471;44.534;18.644;2023-07-31T14:50:28;32.40;53.40
52769;DHT22;40471;44.534;18.644;2023-07-31T14:52:54;32.60;53.60
52769;DHT22;40471;44.534;18.644;2023-07-31T14:55:19;32.60;53.30
52769;DHT22;40471;44.534;18.644;2023-07-31T14:57:45;32.70;53.50
52769;DHT22;40471;44.534;18.644;2023-07-31T15:00:11;32.70;53.20
52769;DHT22;40471;44.534;18.644;2023-07-31T15:02:39;32.60;53.50
52769;DHT22;40471;44.534;18.644;2023-07-31T15:05:04;32.60;54.00
52769;DHT22;40471;44.534;18.644;2023-07-31T15:07:30;32.20;53.40
52769;DHT22;40471;44.534;18.644;2023-07-31T15:09:56;32.10;53.90
52769;DHT22;40471;44.534;18.644;2023-07-31T15:12:21;32.00;54.60
52769;DHT22;40471;44.534;18.644;2023-07-31T15:14:48;31.80;54.60
52769;DHT22;40471;44.534;18.644;2023-07-31T15:17:14;31.70;54.60
52769;DHT22;40471;44.534;18.644;2023-07-31T15:19:39;31.60;55.00
52769;DHT22;40471;44.534;18.644;2023-07-31T15:22:05;31.40;54.50
52769;DHT22;40471;44.534;18.644;2023-07-31T15:24:31;31.30;55.00
52769;DHT22;40471;44.534;18.644;2023-07-31T15:26:56;31.40;55.30